Skopje, Macedonia
Current Conditions -  °F | °C
As of 1:30 AM on Saturday 20 Dec 2014 (Local Time) from LWSK Reporting Station
Overcast Overcast  
Wind Chill: 35°   Ceiling: 400
Heat Index: 39°   Visibility: 4mi
Dew Point: 36°   Wind: 6mph
Humidity: 87%   Direction: 30°NNE
Pressure: 30.21"   Gusts: NA
Location:  42°N, 21.47°E
Report Text: LWSK 192330Z 03005KT 6000 OVC004 04/02 Q1023 NOSIG
Loading
Personal Weather Stations






























Interactive Weather Map New forecast layout! Learn more

10-Day Weather Forecast

Advertisements
Track Severe Weather on mobile